Station info - map view · info · telemetry · weather · raw · status · beacons · messages · bulletins · browse · moving · my account
Callsign, ship name or locator: Clear       
It is possible to search using wildcards (*?) after a prefix. Example: OH*
APRS station HF3P-9 - show graphs
Map loading...
Comment: 144.500MHz Tomek scan, DMR, CB19, 73!
Mic-E message: En route
Location: 52°28.64' N 17°16.34' E - locator JO82PL24QN - show map - static map
0.6 miles West bearing 269° from Pobiedziska, Powiat poznański, Greater Poland Voivodeship, Poland [?]
5.8 miles North bearing 19° from Kostrzyn, Powiat poznański, Greater Poland Voivodeship, Poland
15.2 miles East bearing 71° from Poznań, Poznań, Greater Poland Voivodeship, Poland
54.2 miles Southwest bearing 215° from Bydgoszcz, Bydgoszcz, Kujawsko-Pomorskie, Poland
Last position: 2021-04-12 04:52:54 EDT (2d 1h36m ago)
2021-04-12 10:52:54 CEST local time at Pobiedziska, Poland [?]
Altitude: 413 ft
Course: 20°
Speed: 4 MPH
Device: Yaesu: FTM-400DR (rig)
Last path: HF3P-9>UR2X64 via WIDE1-1,WIDE2-1,qAR,SR3NPB (good)
Positions stored: 184113
Packet rate: 32 seconds between packets on average during 129 seconds.
Other SSIDs: HF3P HF3P-11 HF3P-18 HF3P-5 HF3P-7
Stations near current position of HF3P-9 - show more
callsign distance last heard - EDT      callsign distance last heard - EDT
HF3P-753.7 yards 67°2021-04-05 03:39:57 HF3P-1181.2 yards 171°2021-04-14 06:28:47
438.875-P0.3 miles 92°2021-04-14 06:26:59 SR3NPB0.3 miles 96°2021-04-14 06:16:45
SQ3OPF-76.5 miles 257°2021-03-25 01:08:12 SP3Q-99.9 miles 143°2021-03-22 13:59:54
SP3RNY-i9.9 miles 236°2021-04-11 12:22:20 SP3CM-910.2 miles 241°2021-04-13 13:09:14
SP3CM10.3 miles 239°2021-04-13 16:24:11 SP3CM-1510.3 miles 239°2021-04-14 06:28:55
SP3CM-710.8 miles 235°2021-04-11 12:31:41 S0410634_10.9 miles 343°2021-04-05 09:12:25
S041063411.0 miles 341°2021-04-05 09:11:29 SP3GW11.2 miles 326°2021-04-09 01:53:09
SP3GW-911.2 miles 326°2021-04-11 09:22:36 SP3GW11.3 miles 326°2021-04-05 00:01:06
SQ3OPF-911.3 miles 247°2021-04-13 23:20:51 SP3GW-111.3 miles 327°2021-04-14 06:21:34
SP3U12.0 miles 266°2021-04-12 11:06:51 SQ3NIK-512.5 miles 254°2021-04-13 07:47:57
Stations which heard HF3P-9 directly on radio –
callsign pkts first heard - EDT last heard longest (tx => rx) longest at - EDT
SR3NWY 1 2021-04-09 16:27:54 2021-04-09 16:27:54 JO82HC > JO82SB 39.7 miles 93° 2021-04-09 16:27:54
SR3DPN 387 2021-04-01 00:44:19 2021-04-12 03:30:28 JO82PL > JO82LJ 15.8 miles 255° 2021-04-09 02:36:44
SR6NWS 30 2021-04-09 04:07:16 2021-04-09 15:47:55 JO90BL > JO80FQ 73.4 miles 282° 2021-04-09 14:36:45
SR9DZB 1 2021-04-09 14:35:12 2021-04-09 14:35:12 JO90CL > JO90IS 31.4 miles 45° 2021-04-09 14:35:12
SP3WBX 6 2021-04-02 06:12:41 2021-04-09 16:36:24 JO82HC > JO82KF 12.0 miles 43° 2021-04-09 16:28:23
SR9NDX 16 2021-04-09 05:26:40 2021-04-09 14:12:25 JO90BL > JO90MH 38.9 miles 107° 2021-04-09 05:37:39
SP6PWT 33 2021-04-09 04:07:46 2021-04-09 15:39:25 JO80OV > JO81NC 14.9 miles 344° 2021-04-09 04:36:01
SP3QYJ 3 2021-04-09 03:42:44 2021-04-09 16:00:01 JO81IQ > JO81KP 8.9 miles 124° 2021-04-09 03:42:44
SR6NKB 48 2021-04-09 04:06:16 2021-04-09 15:31:10 JO81MH > JO80RG 73.6 miles 166° 2021-04-09 04:06:16
SQ3KNO 5 2021-04-09 03:08:56 2021-04-09 16:39:02 JO82HD > JO82EH 15.3 miles 316° 2021-04-09 16:29:51
SP3LOZ 13 2021-04-09 02:59:43 2021-04-10 07:22:06 JO82HC > JO82IJ 19.3 miles 13° 2021-04-09 16:27:52
SP3PDK 3 2021-04-09 03:51:05 2021-04-09 16:01:00 JO81JP > JO81KO 4.6 miles 149° 2021-04-09 16:01:00
SR3NKI 29 2021-04-09 03:27:41 2021-04-09 16:23:22 JO82GA > JO81HU 13.1 miles 171° 2021-04-09 16:23:22
SQ3LMR-1 2 2021-04-09 16:15:06 2021-04-09 16:25:52 JO82HB > JO81LV 21.8 miles 128° 2021-04-09 16:25:52
SP9DLM 32 2021-04-09 05:17:17 2021-04-09 14:34:33 JO90BL > JO90KH 33.3 miles 107° 2021-04-09 05:39:09
OK0DSK-1 16 2021-04-09 05:30:38 2021-04-09 13:44:45 JO90CL > JN99DP 57.7 miles 177° 2021-04-09 05:42:56
SR3NPB 807 2021-04-01 00:34:43 2021-04-12 04:52:54 JO82KL > JO82PL 16.4 miles 87° 2021-04-10 07:19:38
SR9NSK 71 2021-04-09 05:23:51 2021-04-09 14:34:03 JO90BL > JN99MQ 66.1 miles 144° 2021-04-09 05:41:09
SR6WXP 14 2021-04-09 04:52:11 2021-04-09 14:53:23 JO90AL > JO80VP 16.3 miles 311° 2021-04-09 05:12:45
SP9UVG-13 5 2021-04-09 13:48:15 2021-04-09 13:58:39 JO90MD > JO90OE 9.4 miles 70° 2021-04-09 13:48:15
SR6NDZ 48 2021-04-09 03:41:12 2021-04-09 16:02:59 JO81ME > JO81KL 21.4 miles 348° 2021-04-09 04:14:08
SR3NOW 1 2021-04-09 15:40:55 2021-04-09 15:40:55 JO81MH > JO81VP 40.6 miles 53° 2021-04-09 15:40:55
SP9KAT 18 2021-04-09 07:03:23 2021-04-09 13:20:12 JN99MU > JN99MT 3.4 miles 159° 2021-04-09 13:20:12
SR9WXS 31 2021-04-09 06:11:44 2021-04-09 14:16:55 JO90HG > JN99MS 39.1 miles 151° 2021-04-09 14:16:55
SP8EBC-5 1 2021-04-09 13:18:42 2021-04-09 13:18:42 JN99MU > JN99OS 10.7 miles 123° 2021-04-09 13:18:42
SQ6KPO-1 5 2021-04-09 04:23:46 2021-04-09 15:28:31 JO81MA > JO81LC 6.0 miles 341° 2021-04-09 15:22:15
SQ6OXF-10 5 2021-04-09 15:33:45 2021-04-09 15:40:25 JO81MH > JO81PF 12.2 miles 121° 2021-04-09 15:40:25
SP3GW-1 52 2021-04-02 04:20:04 2021-04-12 03:34:29 JO82KL > JO82NO 14.3 miles 50° 2021-04-10 06:00:59
SP3CM 2 2021-04-09 17:17:16 2021-04-09 17:17:48 JO82MK > JO82MJ 3.4 miles 195° 2021-04-09 17:17:48
SQ6NTI-2 22 2021-04-09 04:08:16 2021-04-09 15:38:55 JO81MG > JO81LC 10.7 miles 192° 2021-04-09 15:38:55
SR9NSK-2 30 2021-04-09 06:21:51 2021-04-09 14:38:53 JO90AL > JN99MQ 69.8 miles 142° 2021-04-09 14:38:53
SR9WXM 3 2021-04-09 06:49:27 2021-04-09 13:18:46 JN99JT > JN99NS 15.7 miles 102° 2021-04-09 06:49:27
SR9SRC 2 2021-04-09 05:41:55 2021-04-09 14:35:41 JO90BL > JO90BC 23.9 miles 180° 2021-04-09 14:35:41
SR6MRU 6 2021-04-09 04:10:16 2021-04-09 15:35:18 JO81MF > JO81MD 4.9 miles 189° 2021-04-09 04:10:16
SQ9CH 3 2021-04-09 13:54:32 2021-04-09 14:00:40 JO90MF > JO90NH 6.2 miles 29° 2021-04-09 13:54:32

Only position packets which were originated by the station are shown here. The range statistics show some extra long hops, because some digipeaters do not correctly add themselves to the digipeater path. Please check the raw packets.
About this site
This page shows real-time information collected from the Automatic Position Reporting System Internet network (APRS-IS). APRS is used by amateur (ham) radio operators to transmit real-time position information, weather data, telemetry and messages over the radio. A vehicle equipped with a GPS receiver, a VHF transmitter or HF transceiver and a small computer device called a tracker transmits it's location, speed and course in a small data packet, which is then received by a nearby iGate receiving site which forwards the packet on the Internet. Systems connected to the Internet can send information on the APRS-IS without a radio transmitter, or collect and display information transmitted anywhere in the world.
User guide · FAQ · Blog · Discussion group · Linking to aprs.fi · AIS sites · Service status · Database statistics · Advertising on aprs.fi · Technical details · API · Change log · Planned changes · Credits and thanks · Terms Of Service · iPhone/iPad APRS